Sansarc, South Dakota
Current Conditions -  °F | °C
As of 1:53 AM on Monday 20 Oct 2014 (Local Time) from KPIR Reporting Station
Clear Clear  
Wind Chill: 44°   Ceiling: Unl
Heat Index: 44°   Visibility: 10mi
Dew Point: 35°   Wind: 0mph
Humidity: 71%   Direction: NA
Pressure: 30.05"   Gusts: NA
Location:  44.4554°N, 100.84°W
Report Text: KPIR 200753Z AUTO 00000KT 10SM CLR 07/02 A3005 RMK AO2 SLP172 T00670017 $
Loading
Personal Weather Stations






























Interactive Weather Map
Tropical Storm Tracking
New forecast layout! Learn more

10-Day Weather Forecast

Advertisements
Track Severe Weather on mobile